Time,TemperatureF,DewpointF,PressureIn,WindDirection,WindDirectionDegrees,WindSpeedMPH,WindSpeedGustMPH,Humidity,HourlyPrecipIn,Conditions,Clouds,dailyrainin,SolarRadiationWatts/m^2,SoftwareType,DateUTC
2013-03-31 00:33:00,65.0,50.0,-100.00,SW,214,8.0,15.0,58,0.00,,,0.00,0.000000,,2013-03-31 04:33:00,
2013-03-31 00:43:00,65.0,50.0,-100.00,SW,214,8.0,15.0,58,0.00,,,0.00,0.000000,,2013-03-31 04:43:00,
2013-03-31 00:53:00,65.0,50.0,-100.00,SW,214,8.0,15.0,58,0.00,,,0.00,0.000000,,2013-03-31 04:53:00,
2013-03-31 01:02:00,65.0,50.0,-100.00,SW,214,8.0,15.0,58,0.00,,,0.00,0.000000,,2013-03-31 05:02:00,
2013-03-31 01:22:00,64.0,52.0,-100.00,SSW,207,9.0,14.0,64,0.00,,,0.00,0.000000,,2013-03-31 05:22:00,
2013-03-31 01:32:00,64.0,52.0,-100.00,SSW,207,9.0,14.0,64,0.00,,,0.00,0.000000,,2013-03-31 05:32:00,
2013-03-31 01:42:00,64.0,52.0,-100.00,SSW,207,9.0,14.0,64,0.00,,,0.00,0.000000,,2013-03-31 05:42:00,
2013-03-31 01:53:00,64.0,52.0,-100.00,SSW,207,9.0,14.0,64,0.00,,,0.00,0.000000,,2013-03-31 05:53:00,
2013-03-31 02:02:00,64.0,52.0,-100.00,SSW,207,9.0,14.0,64,0.00,,,0.00,0.000000,,2013-03-31 06:02:00,
2013-03-31 02:33:00,62.0,49.0,-100.00,SW,216,6.0,14.0,63,0.00,,,0.00,0.000000,,2013-03-31 06:33:00,
2013-03-31 02:42:00,62.0,49.0,-100.00,SW,216,6.0,14.0,63,0.00,,,0.00,0.000000,,2013-03-31 06:42:00,
2013-03-31 02:53:00,62.0,49.0,-100.00,SW,216,6.0,14.0,63,0.00,,,0.00,0.000000,,2013-03-31 06:53:00,
2013-03-31 03:02:00,62.0,49.0,-100.00,SW,216,6.0,14.0,63,0.00,,,0.00,0.000000,,2013-03-31 07:02:00,
2013-03-31 03:33:00,62.0,46.0,-100.00,SSW,211,8.0,13.0,56,0.00,,,0.00,0.000000,,2013-03-31 07:33:00,
2013-03-31 03:43:00,62.0,46.0,-100.00,SSW,211,8.0,13.0,56,0.00,,,0.00,0.000000,,2013-03-31 07:43:00,
2013-03-31 03:53:00,62.0,46.0,-100.00,SSW,211,8.0,13.0,56,0.00,,,0.00,0.000000,,2013-03-31 07:53:00,
2013-03-31 04:02:00,62.0,46.0,-100.00,SSW,211,8.0,13.0,56,0.00,,,0.00,0.000000,,2013-03-31 08:02:00,
2013-03-31 04:22:00,61.0,45.0,-100.00,SSW,212,8.0,12.0,55,0.00,,,0.00,0.000000,,2013-03-31 08:22:00,
2013-03-31 04:32:00,61.0,45.0,-100.00,SSW,212,8.0,12.0,55,0.00,,,0.00,0.000000,,2013-03-31 08:32:00,
2013-03-31 04:42:00,61.0,45.0,-100.00,SSW,212,8.0,12.0,55,0.00,,,0.00,0.000000,,2013-03-31 08:42:00,
2013-03-31 04:52:00,61.0,45.0,-100.00,SSW,212,8.0,12.0,55,0.00,,,0.00,0.000000,,2013-03-31 08:52:00,
2013-03-31 05:02:00,61.0,45.0,-100.00,SSW,212,8.0,12.0,55,0.00,,,0.00,0.000000,,2013-03-31 09:02:00,
2013-03-31 05:03:00,60.0,44.0,-100.00,SSW,213,6.0,11.0,56,0.00,,,0.00,0.000000,,2013-03-31 09:03:00,
2013-03-31 05:33:00,60.0,44.0,-100.00,SSW,213,6.0,11.0,56,0.00,,,0.00,0.000000,,2013-03-31 09:33:00,
2013-03-31 05:43:00,60.0,44.0,-100.00,SSW,213,6.0,11.0,56,0.00,,,0.00,0.000000,,2013-03-31 09:43:00,
2013-03-31 05:53:00,60.0,44.0,-100.00,SSW,213,6.0,11.0,56,0.00,,,0.00,0.000000,,2013-03-31 09:53:00,
2013-03-31 06:03:00,59.0,46.0,-100.00,SSW,206,7.0,11.0,63,0.00,,,0.00,0.000000,,2013-03-31 10:03:00,
2013-03-31 06:33:00,59.0,46.0,-100.00,SSW,206,7.0,11.0,63,0.00,,,0.00,0.000000,,2013-03-31 10:33:00,
2013-03-31 06:42:00,59.0,46.0,-100.00,SSW,206,7.0,11.0,63,0.00,,,0.00,0.000000,,2013-03-31 10:42:00,
2013-03-31 06:53:00,59.0,46.0,-100.00,SSW,206,7.0,11.0,63,0.00,,,0.00,0.000000,,2013-03-31 10:53:00,
2013-03-31 07:03:00,59.0,51.0,-100.00,SW,214,8.0,12.0,74,0.00,,,0.00,0.000000,,2013-03-31 11:03:00,
2013-03-31 07:33:00,59.0,51.0,-100.00,SW,214,8.0,12.0,74,0.00,,,0.00,0.000000,,2013-03-31 11:33:00,
2013-03-31 07:43:00,59.0,51.0,-100.00,SW,214,8.0,12.0,74,0.00,,,0.00,0.000000,,2013-03-31 11:43:00,
2013-03-31 07:53:00,59.0,51.0,-100.00,SW,214,8.0,12.0,74,0.00,,,0.00,0.000000,,2013-03-31 11:53:00,
2013-03-31 08:22:00,58.0,52.0,-100.00,SW,229,6.0,14.0,81,0.00,,,0.00,17.000000,,2013-03-31 12:22:00,
2013-03-31 08:33:00,58.0,52.0,-100.00,SW,229,6.0,14.0,81,0.00,,,0.00,17.000000,,2013-03-31 12:33:00,
2013-03-31 08:42:00,58.0,52.0,-100.00,SW,229,6.0,14.0,81,0.00,,,0.00,17.000000,,2013-03-31 12:42:00,
2013-03-31 08:53:00,58.0,52.0,-100.00,SW,229,6.0,14.0,81,0.00,,,0.00,17.000000,,2013-03-31 12:53:00,
2013-03-31 09:02:00,58.0,52.0,-100.00,SW,229,6.0,14.0,81,0.00,,,0.00,17.000000,,2013-03-31 13:02:00,
2013-03-31 09:03:00,62.0,55.0,-100.00,SW,227,8.0,12.0,79,0.00,,,0.00,192.000000,,2013-03-31 13:03:00,
2013-03-31 09:33:00,62.0,55.0,-100.00,SW,227,8.0,12.0,79,0.00,,,0.00,192.000000,,2013-03-31 13:33:00,
2013-03-31 09:42:00,62.0,55.0,-100.00,SW,227,8.0,12.0,79,0.00,,,0.00,192.000000,,2013-03-31 13:42:00,
2013-03-31 09:53:00,62.0,55.0,-100.00,SW,227,8.0,12.0,79,0.00,,,0.00,192.000000,,2013-03-31 13:53:00,
2013-03-31 10:03:00,65.0,56.0,-100.00,WSW,240,10.0,16.0,74,0.00,,,0.00,392.000000,,2013-03-31 14:03:00,
2013-03-31 10:23:00,65.0,56.0,-100.00,WSW,240,10.0,16.0,74,0.00,,,0.00,392.000000,,2013-03-31 14:23:00,
2013-03-31 10:33:00,65.0,56.0,-100.00,WSW,240,10.0,16.0,74,0.00,,,0.00,392.000000,,2013-03-31 14:33:00,
2013-03-31 10:43:00,65.0,56.0,-100.00,WSW,240,10.0,16.0,74,0.00,,,0.00,392.000000,,2013-03-31 14:43:00,
2013-03-31 10:53:00,65.0,56.0,-100.00,WSW,240,10.0,16.0,74,0.00,,,0.00,392.000000,,2013-03-31 14:53:00,
2013-03-31 11:03:00,70.0,58.0,-100.00,SW,236,11.0,17.0,65,0.00,,,0.00,694.000000,,2013-03-31 15:03:00,
2013-03-31 11:34:00,70.0,58.0,-100.00,SW,236,11.0,17.0,65,0.00,,,0.00,694.000000,,2013-03-31 15:34:00,
2013-03-31 11:44:00,70.0,58.0,-100.00,SW,236,11.0,17.0,65,0.00,,,0.00,694.000000,,2013-03-31 15:44:00,
2013-03-31 11:54:00,70.0,58.0,-100.00,SW,236,11.0,17.0,65,0.00,,,0.00,694.000000,,2013-03-31 15:54:00,
2013-03-31 12:03:00,72.0,54.0,-100.00,WSW,241,13.0,19.0,54,0.00,,,0.00,847.000000,,2013-03-31 16:03:00,
2013-03-31 12:34:00,72.0,54.0,-100.00,WSW,241,13.0,19.0,54,0.00,,,0.00,847.000000,,2013-03-31 16:34:00,
2013-03-31 12:43:00,72.0,54.0,-100.00,WSW,241,13.0,19.0,54,0.00,,,0.00,847.000000,,2013-03-31 16:43:00,
2013-03-31 12:54:00,72.0,54.0,-100.00,WSW,241,13.0,19.0,54,0.00,,,0.00,847.000000,,2013-03-31 16:54:00,
2013-03-31 13:03:00,72.0,54.0,-100.00,West,259,11.0,19.0,54,0.00,,,0.00,779.000000,,2013-03-31 17:03:00,
2013-03-31 13:33:00,72.0,54.0,-100.00,West,259,11.0,19.0,54,0.00,,,0.00,779.000000,,2013-03-31 17:33:00,
2013-03-31 13:43:00,72.0,54.0,-100.00,West,259,11.0,19.0,54,0.00,,,0.00,779.000000,,2013-03-31 17:43:00,
2013-03-31 13:52:00,72.0,54.0,-100.00,West,259,11.0,19.0,54,0.00,,,0.00,779.000000,,2013-03-31 17:52:00,
2013-03-31 14:03:00,75.0,56.0,-100.00,WSW,247,8.0,18.0,52,0.00,,,0.00,742.000000,,2013-03-31 18:03:00,
2013-03-31 14:33:00,75.0,56.0,-100.00,WSW,247,8.0,18.0,52,0.00,,,0.00,742.000000,,2013-03-31 18:33:00,
2013-03-31 14:43:00,75.0,56.0,-100.00,WSW,247,8.0,18.0,52,0.00,,,0.00,742.000000,,2013-03-31 18:43:00,
2013-03-31 14:53:00,75.0,56.0,-100.00,WSW,247,8.0,18.0,52,0.00,,,0.00,742.000000,,2013-03-31 18:53:00,
2013-03-31 15:03:00,76.0,55.0,-100.00,WSW,242,11.0,16.0,48,0.01,,,0.01,764.000000,,2013-03-31 19:03:00,
2013-03-31 15:33:00,76.0,55.0,-100.00,WSW,242,11.0,16.0,48,0.01,,,0.01,764.000000,,2013-03-31 19:33:00,
2013-03-31 15:43:00,76.0,55.0,-100.00,WSW,242,11.0,16.0,48,0.01,,,0.01,764.000000,,2013-03-31 19:43:00,
2013-03-31 15:54:00,76.0,55.0,-100.00,WSW,242,11.0,16.0,48,0.01,,,0.01,764.000000,,2013-03-31 19:54:00,
2013-03-31 16:03:00,78.0,52.0,-100.00,SW,222,11.0,18.0,41,0.00,,,0.01,950.000000,,2013-03-31 20:03:00,
2013-03-31 16:34:00,78.0,52.0,-100.00,SW,222,11.0,18.0,41,0.00,,,0.01,950.000000,,2013-03-31 20:34:00,
2013-03-31 16:43:00,78.0,52.0,-100.00,SW,222,11.0,18.0,41,0.00,,,0.01,950.000000,,2013-03-31 20:43:00,
2013-03-31 16:53:00,78.0,52.0,-100.00,SW,222,11.0,18.0,41,0.00,,,0.01,950.000000,,2013-03-31 20:53:00,
2013-03-31 17:03:00,76.0,52.0,-100.00,SW,220,10.0,17.0,44,0.00,,,0.01,345.000000,,2013-03-31 21:03:00,
2013-03-31 17:34:00,76.0,52.0,-100.00,SW,220,10.0,17.0,44,0.00,,,0.01,345.000000,,2013-03-31 21:34:00,
2013-03-31 17:44:00,76.0,52.0,-100.00,SW,220,10.0,17.0,44,0.00,,,0.01,345.000000,,2013-03-31 21:44:00,
2013-03-31 17:54:00,76.0,52.0,-100.00,SW,220,10.0,17.0,44,0.00,,,0.01,345.000000,,2013-03-31 21:54:00,
2013-03-31 18:03:00,76.0,54.0,-100.00,SW,228,10.0,19.0,47,0.00,,,0.01,346.000000,,2013-03-31 22:03:00,
2013-03-31 18:24:00,76.0,54.0,-100.00,SW,228,10.0,19.0,47,0.00,,,0.01,346.000000,,2013-03-31 22:24:00,
2013-03-31 18:33:00,76.0,54.0,-100.00,SW,228,10.0,19.0,47,0.00,,,0.01,346.000000,,2013-03-31 22:33:00,
2013-03-31 18:43:00,76.0,54.0,-100.00,SW,228,10.0,19.0,47,0.00,,,0.01,346.000000,,2013-03-31 22:43:00,
2013-03-31 18:53:00,76.0,54.0,-100.00,SW,228,10.0,19.0,47,0.00,,,0.01,346.000000,,2013-03-31 22:53:00,
2013-03-31 19:33:00,69.0,62.0,-100.00,SSW,212,7.0,21.0,78,0.05,,,0.06,77.000000,,2013-03-31 23:33:00,
2013-03-31 19:43:00,69.0,62.0,-100.00,SSW,212,7.0,21.0,78,0.05,,,0.06,77.000000,,2013-03-31 23:43:00,
2013-03-31 19:54:00,69.0,62.0,-100.00,SSW,212,7.0,21.0,78,0.05,,,0.06,77.000000,,2013-03-31 23:54:00,
2013-03-31 20:02:00,69.0,62.0,-100.00,SSW,212,7.0,21.0,78,0.05,,,0.06,77.000000,,2013-04-01 00:02:00,
2013-03-31 20:03:00,68.0,61.0,-100.00,South,175,8.0,12.0,79,0.00,,,0.06,11.000000,,2013-04-01 00:03:00,
2013-03-31 20:23:00,68.0,61.0,-100.00,South,175,8.0,12.0,79,0.00,,,0.06,11.000000,,2013-04-01 00:23:00,
2013-03-31 20:33:00,68.0,61.0,-100.00,South,175,8.0,12.0,79,0.00,,,0.06,11.000000,,2013-04-01 00:33:00,
2013-03-31 20:43:00,68.0,61.0,-100.00,South,175,8.0,12.0,79,0.00,,,0.06,11.000000,,2013-04-01 00:43:00,
2013-03-31 20:53:00,68.0,61.0,-100.00,South,175,8.0,12.0,79,0.00,,,0.06,11.000000,,2013-04-01 00:53:00,
2013-03-31 21:03:00,66.0,63.0,-100.00,SW,222,11.0,17.0,89,0.02,,,0.08,0.000000,,2013-04-01 01:03:00,
2013-03-31 21:33:00,66.0,63.0,-100.00,SW,222,11.0,17.0,89,0.02,,,0.08,0.000000,,2013-04-01 01:33:00,
2013-03-31 21:43:00,66.0,63.0,-100.00,SW,222,11.0,17.0,89,0.02,,,0.08,0.000000,,2013-04-01 01:43:00,
2013-03-31 21:53:00,66.0,63.0,-100.00,SW,222,11.0,17.0,89,0.02,,,0.08,0.000000,,2013-04-01 01:53:00,
2013-03-31 22:03:00,60.0,58.0,-100.00,South,175,9.0,19.0,92,0.43,,,0.51,0.000000,,2013-04-01 02:03:00,
2013-03-31 22:33:00,60.0,58.0,-100.00,South,175,9.0,19.0,92,0.43,,,0.51,0.000000,,2013-04-01 02:33:00,
2013-03-31 22:43:00,60.0,58.0,-100.00,South,175,9.0,19.0,92,0.43,,,0.51,0.000000,,2013-04-01 02:43:00,
2013-03-31 22:53:00,60.0,58.0,-100.00,South,175,9.0,19.0,92,0.43,,,0.51,0.000000,,2013-04-01 02:53:00,
2013-03-31 23:03:00,60.0,58.0,-100.00,SSW,196,6.0,21.0,93,0.28,,,0.79,0.000000,,2013-04-01 03:03:00,
2013-03-31 23:35:00,60.0,58.0,-100.00,SSW,196,6.0,21.0,93,0.28,,,0.79,0.000000,,2013-04-01 03:35:00,
2013-03-31 23:43:00,60.0,58.0,-100.00,SSW,196,6.0,21.0,93,0.28,,,0.79,0.000000,,2013-04-01 03:43:00,
2013-03-31 23:53:00,60.0,58.0,-100.00,SSW,196,6.0,21.0,93,0.28,,,0.79,0.000000,,2013-04-01 03:53:00,